sensor_id;sensor_type;location;lat;lon;timestamp;pressure;altitude;pressure_sealevel;temperature;humidity
69796;BME280;57073;45.650;9.612;2023-07-29T00:03:01;99005.88;;;22.77;49.34
69796;BME280;57073;45.650;9.612;2023-07-29T00:08:01;98997.00;;;22.71;49.51
69796;BME280;57073;45.650;9.612;2023-07-29T00:13:02;99006.84;;;22.72;49.19
69796;BME280;57073;45.650;9.612;2023-07-29T00:18:02;98997.00;;;22.62;50.31
69796;BME280;57073;45.650;9.612;2023-07-29T00:23:03;98996.53;;;22.60;49.95
69796;BME280;57073;45.650;9.612;2023-07-29T00:28:03;99007.19;;;22.53;49.75
69796;BME280;57073;45.650;9.612;2023-07-29T00:33:04;99000.59;;;22.46;50.09
69796;BME280;57073;45.650;9.612;2023-07-29T00:38:04;99001.38;;;22.37;50.33
69796;BME280;57073;45.650;9.612;2023-07-29T00:43:04;99000.72;;;22.32;49.92
69796;BME280;57073;45.650;9.612;2023-07-29T00:48:05;98990.53;;;22.15;50.17
69796;BME280;57073;45.650;9.612;2023-07-29T00:53:05;98998.44;;;22.08;50.99
69796;BME280;57073;45.650;9.612;2023-07-29T00:58:07;99000.34;;;21.98;50.27
69796;BME280;57073;45.650;9.612;2023-07-29T01:03:07;98987.09;;;21.92;50.54
69796;BME280;57073;45.650;9.612;2023-07-29T01:08:23;98990.28;;;21.85;51.49
69796;BME280;57073;45.650;9.612;2023-07-29T01:13:50;98976.75;;;21.88;50.79
69796;BME280;57073;45.650;9.612;2023-07-29T01:18:55;98981.25;;;21.84;50.82
69796;BME280;57073;45.650;9.612;2023-07-29T01:23:58;98972.66;;;21.68;50.79
69796;BME280;57073;45.650;9.612;2023-07-29T01:28:59;98974.41;;;21.56;51.24
69796;BME280;57073;45.650;9.612;2023-07-29T01:34:07;98967.91;;;21.52;51.00
69796;BME280;57073;45.650;9.612;2023-07-29T01:39:11;98979.34;;;21.45;52.13
69796;BME280;57073;45.650;9.612;2023-07-29T01:44:12;98986.16;;;21.56;52.06
69796;BME280;57073;45.650;9.612;2023-07-29T01:49:14;98988.59;;;21.58;51.62
69796;BME280;57073;45.650;9.612;2023-07-29T01:54:14;99006.69;;;21.59;52.17
69796;BME280;57073;45.650;9.612;2023-07-29T01:59:14;99002.81;;;21.60;51.66
69796;BME280;57073;45.650;9.612;2023-07-29T02:04:16;98995.41;;;21.60;51.52
69796;BME280;57073;45.650;9.612;2023-07-29T02:09:16;98996.97;;;21.53;51.37
69796;BME280;57073;45.650;9.612;2023-07-29T02:14:17;99000.56;;;21.30;51.20
69796;BME280;57073;45.650;9.612;2023-07-29T02:19:17;98997.47;;;21.23;52.47
69796;BME280;57073;45.650;9.612;2023-07-29T02:24:18;98984.41;;;21.20;52.57
69796;BME280;57073;45.650;9.612;2023-07-29T02:29:18;98979.06;;;21.15;52.45
69796;BME280;57073;45.650;9.612;2023-07-29T02:34:18;98982.16;;;21.22;51.76
69796;BME280;57073;45.650;9.612;2023-07-29T02:39:19;98984.91;;;21.22;51.73
69796;BME280;57073;45.650;9.612;2023-07-29T02:44:19;98995.50;;;21.15;51.50
69796;BME280;57073;45.650;9.612;2023-07-29T02:49:20;99001.59;;;21.12;52.69
69796;BME280;57073;45.650;9.612;2023-07-29T02:54:20;99004.88;;;21.23;52.75
69796;BME280;57073;45.650;9.612;2023-07-29T02:59:20;98998.63;;;21.31;52.22
69796;BME280;57073;45.650;9.612;2023-07-29T03:04:21;99004.09;;;21.22;51.65
69796;BME280;57073;45.650;9.612;2023-07-29T03:09:21;99003.81;;;21.01;51.95
69796;BME280;57073;45.650;9.612;2023-07-29T03:14:22;99003.63;;;20.98;51.88
69796;BME280;57073;45.650;9.612;2023-07-29T03:19:22;99008.19;;;21.02;52.61
69796;BME280;57073;45.650;9.612;2023-07-29T03:24:22;98998.81;;;21.03;52.11
69796;BME280;57073;45.650;9.612;2023-07-29T03:29:23;99003.38;;;21.08;52.62
69796;BME280;57073;45.650;9.612;2023-07-29T03:34:23;98999.78;;;20.99;52.67
69796;BME280;57073;45.650;9.612;2023-07-29T03:39:23;98997.53;;;21.01;52.52
69796;BME280;57073;45.650;9.612;2023-07-29T03:44:24;99003.75;;;20.92;52.38
69796;BME280;57073;45.650;9.612;2023-07-29T03:49:24;99016.53;;;20.97;51.95
69796;BME280;57073;45.650;9.612;2023-07-29T03:54:24;99011.00;;;20.74;52.83
69796;BME280;57073;45.650;9.612;2023-07-29T03:59:25;99009.28;;;20.79;52.63
69796;BME280;57073;45.650;9.612;2023-07-29T04:04:25;99023.78;;;20.79;52.75
69796;BME280;57073;45.650;9.612;2023-07-29T04:09:26;99016.47;;;20.74;51.96
69796;BME280;57073;45.650;9.612;2023-07-29T04:14:26;99009.63;;;20.63;53.14
69796;BME280;57073;45.650;9.612;2023-07-29T04:19:27;99010.59;;;20.59;53.15
69796;BME280;57073;45.650;9.612;2023-07-29T04:24:27;99013.41;;;20.90;52.45
69796;BME280;57073;45.650;9.612;2023-07-29T04:29:31;99020.19;;;20.92;52.28
69796;BME280;57073;45.650;9.612;2023-07-29T04:34:31;99042.78;;;20.98;52.55
69796;BME280;57073;45.650;9.612;2023-07-29T04:39:32;99049.56;;;21.23;52.05
69796;BME280;57073;45.650;9.612;2023-07-29T04:44:33;99049.94;;;21.62;50.69
69796;BME280;57073;45.650;9.612;2023-07-29T04:49:33;99053.09;;;22.44;48.84
69796;BME280;57073;45.650;9.612;2023-07-29T04:54:34;99051.31;;;22.92;47.61
69796;BME280;57073;45.650;9.612;2023-07-29T04:59:34;99056.00;;;22.82;47.13
69796;BME280;57073;45.650;9.612;2023-07-29T05:04:34;99046.78;;;22.61;47.80
69796;BME280;57073;45.650;9.612;2023-07-29T05:09:35;99043.25;;;22.52;47.37
69796;BME280;57073;45.650;9.612;2023-07-29T05:14:35;99050.03;;;22.80;47.36
69796;BME280;57073;45.650;9.612;2023-07-29T05:19:35;99058.91;;;23.12;47.14
69796;BME280;57073;45.650;9.612;2023-07-29T05:24:36;99063.16;;;23.57;46.17
69796;BME280;57073;45.650;9.612;2023-07-29T05:29:36;99046.50;;;23.92;46.39
69796;BME280;57073;45.650;9.612;2023-07-29T05:34:37;99042.50;;;24.40;44.93
69796;BME280;57073;45.650;9.612;2023-07-29T05:39:37;99053.94;;;24.93;44.04
69796;BME280;57073;45.650;9.612;2023-07-29T05:44:37;99062.69;;;25.41;42.05
69796;BME280;57073;45.650;9.612;2023-07-29T05:49:38;99060.81;;;25.54;41.76
69796;BME280;57073;45.650;9.612;2023-07-29T05:54:38;99066.31;;;25.66;41.45
69796;BME280;57073;45.650;9.612;2023-07-29T05:59:39;99076.34;;;26.32;41.24
69796;BME280;57073;45.650;9.612;2023-07-29T06:04:39;99069.66;;;26.09;40.43
69796;BME280;57073;45.650;9.612;2023-07-29T06:09:39;99069.53;;;25.22;41.24
69796;BME280;57073;45.650;9.612;2023-07-29T06:14:40;99069.69;;;25.38;41.05
69796;BME280;57073;45.650;9.612;2023-07-29T06:19:40;99078.63;;;25.93;40.49
69796;BME280;57073;45.650;9.612;2023-07-29T06:24:41;99083.22;;;25.64;40.58
69796;BME280;57073;45.650;9.612;2023-07-29T06:29:41;99084.19;;;26.18;39.68
69796;BME280;57073;45.650;9.612;2023-07-29T06:34:41;99089.09;;;26.49;39.40
69796;BME280;57073;45.650;9.612;2023-07-29T06:39:42;99078.06;;;26.37;39.43
69796;BME280;57073;45.650;9.612;2023-07-29T06:44:42;99075.69;;;26.76;39.28
69796;BME280;57073;45.650;9.612;2023-07-29T06:49:43;99071.25;;;26.87;38.97
69796;BME280;57073;45.650;9.612;2023-07-29T06:54:43;99077.19;;;27.01;39.20
69796;BME280;57073;45.650;9.612;2023-07-29T06:59:43;99088.75;;;27.48;38.18
69796;BME280;57073;45.650;9.612;2023-07-29T07:04:44;99097.97;;;27.52;39.41
69796;BME280;57073;45.650;9.612;2023-07-29T07:09:44;99097.94;;;27.08;40.00
69796;BME280;57073;45.650;9.612;2023-07-29T07:14:44;99099.84;;;27.19;39.79
69796;BME280;57073;45.650;9.612;2023-07-29T07:19:45;99102.00;;;27.26;40.20
69796;BME280;57073;45.650;9.612;2023-07-29T07:24:46;99096.59;;;26.89;40.82
69796;BME280;57073;45.650;9.612;2023-07-29T07:29:46;99086.00;;;26.91;41.60
69796;BME280;57073;45.650;9.612;2023-07-29T07:34:47;99092.91;;;26.97;41.52
69796;BME280;57073;45.650;9.612;2023-07-29T07:39:47;99098.38;;;26.69;41.30
69796;BME280;57073;45.650;9.612;2023-07-29T07:44:47;99100.59;;;26.76;42.19
69796;BME280;57073;45.650;9.612;2023-07-29T07:49:48;99096.13;;;26.59;43.23
69796;BME280;57073;45.650;9.612;2023-07-29T07:54:54;99089.47;;;26.88;43.08
69796;BME280;57073;45.650;9.612;2023-07-29T07:59:54;99088.97;;;26.98;43.12
69796;BME280;57073;45.650;9.612;2023-07-29T08:04:55;99079.03;;;27.10;43.62
69796;BME280;57073;45.650;9.612;2023-07-29T08:09:55;99086.25;;;27.43;43.63
69796;BME280;57073;45.650;9.612;2023-07-29T08:14:55;99080.00;;;27.62;42.90
69796;BME280;57073;45.650;9.612;2023-07-29T08:19:57;99089.03;;;27.58;43.61
69796;BME280;57073;45.650;9.612;2023-07-29T08:24:58;99089.84;;;27.75;43.45
69796;BME280;57073;45.650;9.612;2023-07-29T08:29:58;99085.47;;;27.74;43.83
69796;BME280;57073;45.650;9.612;2023-07-29T08:34:58;99082.00;;;27.93;43.32
69796;BME280;57073;45.650;9.612;2023-07-29T08:39:59;99084.81;;;28.12;43.32
69796;BME280;57073;45.650;9.612;2023-07-29T08:45:06;99066.84;;;27.90;43.41
69796;BME280;57073;45.650;9.612;2023-07-29T08:50:11;99064.81;;;28.03;43.20
69796;BME280;57073;45.650;9.612;2023-07-29T08:55:13;99066.53;;;27.92;42.54
69796;BME280;57073;45.650;9.612;2023-07-29T09:00:14;99067.50;;;28.00;43.00
69796;BME280;57073;45.650;9.612;2023-07-29T09:05:16;99063.28;;;28.57;42.16
69796;BME280;57073;45.650;9.612;2023-07-29T09:10:16;99054.38;;;28.32;41.87
69796;BME280;57073;45.650;9.612;2023-07-29T09:15:27;99060.94;;;28.79;41.97
69796;BME280;57073;45.650;9.612;2023-07-29T09:20:28;99057.28;;;29.14;42.09
69796;BME280;57073;45.650;9.612;2023-07-29T09:25:29;99053.41;;;29.18;41.13
69796;BME280;57073;45.650;9.612;2023-07-29T09:30:30;99054.34;;;29.26;41.00
69796;BME280;57073;45.650;9.612;2023-07-29T09:35:33;99033.84;;;29.57;41.45
69796;BME280;57073;45.650;9.612;2023-07-29T09:40:35;99038.97;;;29.55;40.98
69796;BME280;57073;45.650;9.612;2023-07-29T09:45:37;99035.84;;;29.80;40.01
69796;BME280;57073;45.650;9.612;2023-07-29T09:50:38;99032.84;;;29.92;39.45
69796;BME280;57073;45.650;9.612;2023-07-29T09:55:38;99025.13;;;30.09;39.77
69796;BME280;57073;45.650;9.612;2023-07-29T10:00:39;99020.41;;;30.09;39.37
69796;BME280;57073;45.650;9.612;2023-07-29T10:05:40;99013.28;;;30.12;39.82
69796;BME280;57073;45.650;9.612;2023-07-29T10:10:42;99017.78;;;29.93;39.46
69796;BME280;57073;45.650;9.612;2023-07-29T10:15:44;99006.59;;;29.90;40.10
69796;BME280;57073;45.650;9.612;2023-07-29T10:20:47;99012.00;;;30.05;39.07
69796;BME280;57073;45.650;9.612;2023-07-29T10:26:10;99013.72;;;29.87;37.92
69796;BME280;57073;45.650;9.612;2023-07-29T10:31:12;99023.88;;;30.02;39.38
69796;BME280;57073;45.650;9.612;2023-07-29T10:36:16;99021.19;;;30.10;39.16
69796;BME280;57073;45.650;9.612;2023-07-29T10:41:17;99014.34;;;29.77;39.79
69796;BME280;57073;45.650;9.612;2023-07-29T10:46:19;99013.56;;;29.53;40.31
69796;BME280;57073;45.650;9.612;2023-07-29T10:51:31;99027.50;;;29.80;40.19
69796;BME280;57073;45.650;9.612;2023-07-29T10:56:35;99020.44;;;29.86;39.44
69796;BME280;57073;45.650;9.612;2023-07-29T11:01:41;99019.78;;;29.70;39.00
69796;BME280;57073;45.650;9.612;2023-07-29T11:12:38;99027.19;;;29.39;39.49
69796;BME280;57073;45.650;9.612;2023-07-29T11:22:56;99014.91;;;28.97;40.81
69796;BME280;57073;45.650;9.612;2023-07-29T11:27:58;99014.84;;;28.94;41.43
69796;BME280;57073;45.650;9.612;2023-07-29T11:32:59;99002.00;;;29.05;41.40
69796;BME280;57073;45.650;9.612;2023-07-29T11:38:00;99005.13;;;29.03;41.24
69796;BME280;57073;45.650;9.612;2023-07-29T11:43:00;98992.81;;;28.81;41.37
69796;BME280;57073;45.650;9.612;2023-07-29T11:48:01;98990.66;;;29.14;41.32
69796;BME280;57073;45.650;9.612;2023-07-29T11:53:01;98981.97;;;28.96;40.19
69796;BME280;57073;45.650;9.612;2023-07-29T11:58:02;98987.31;;;29.04;39.54
69796;BME280;57073;45.650;9.612;2023-07-29T12:03:03;98976.22;;;29.04;39.63
69796;BME280;57073;45.650;9.612;2023-07-29T12:08:04;98967.00;;;29.00;40.15
69796;BME280;57073;45.650;9.612;2023-07-29T12:13:04;98952.84;;;29.28;38.84
69796;BME280;57073;45.650;9.612;2023-07-29T12:18:08;98949.09;;;29.17;38.84
69796;BME280;57073;45.650;9.612;2023-07-29T12:23:08;98950.00;;;29.25;37.85
69796;BME280;57073;45.650;9.612;2023-07-29T12:28:08;98947.31;;;29.05;39.96
69796;BME280;57073;45.650;9.612;2023-07-29T12:33:09;98944.13;;;29.30;39.02
69796;BME280;57073;45.650;9.612;2023-07-29T12:38:09;98930.72;;;29.36;38.71
69796;BME280;57073;45.650;9.612;2023-07-29T12:43:10;98945.16;;;29.18;39.59
69796;BME280;57073;45.650;9.612;2023-07-29T12:48:10;98923.59;;;29.35;39.66
69796;BME280;57073;45.650;9.612;2023-07-29T12:53:11;98921.34;;;29.44;39.63
69796;BME280;57073;45.650;9.612;2023-07-29T12:58:11;98923.66;;;29.38;39.98
69796;BME280;57073;45.650;9.612;2023-07-29T13:03:12;98912.16;;;29.40;39.65
69796;BME280;57073;45.650;9.612;2023-07-29T13:08:12;98908.84;;;29.31;39.77
69796;BME280;57073;45.650;9.612;2023-07-29T13:13:12;98897.25;;;29.25;40.25
69796;BME280;57073;45.650;9.612;2023-07-29T13:18:13;98900.72;;;29.18;39.66
69796;BME280;57073;45.650;9.612;2023-07-29T13:23:13;98906.59;;;29.13;39.85
69796;BME280;57073;45.650;9.612;2023-07-29T13:28:13;98908.66;;;28.97;39.95
69796;BME280;57073;45.650;9.612;2023-07-29T13:33:14;98897.88;;;28.91;40.26
69796;BME280;57073;45.650;9.612;2023-07-29T13:38:14;98892.25;;;28.88;39.50
69796;BME280;57073;45.650;9.612;2023-07-29T13:43:15;98878.69;;;28.83;39.39
69796;BME280;57073;45.650;9.612;2023-07-29T13:48:15;98890.13;;;28.58;40.17
69796;BME280;57073;45.650;9.612;2023-07-29T13:53:16;98882.19;;;28.80;39.68
69796;BME280;57073;45.650;9.612;2023-07-29T13:58:16;98891.69;;;28.79;41.13
69796;BME280;57073;45.650;9.612;2023-07-29T14:03:16;98888.13;;;28.78;40.38
69796;BME280;57073;45.650;9.612;2023-07-29T14:08:17;98874.00;;;28.87;40.03
69796;BME280;57073;45.650;9.612;2023-07-29T14:13:17;98880.03;;;28.92;39.42
69796;BME280;57073;45.650;9.612;2023-07-29T14:18:18;98878.06;;;28.93;39.56
69796;BME280;57073;45.650;9.612;2023-07-29T14:23:18;98860.72;;;29.00;39.64
69796;BME280;57073;45.650;9.612;2023-07-29T14:28:18;98866.09;;;29.12;38.67
69796;BME280;57073;45.650;9.612;2023-07-29T14:33:19;98853.19;;;29.23;38.28
69796;BME280;57073;45.650;9.612;2023-07-29T14:38:19;98862.59;;;29.42;37.92
69796;BME280;57073;45.650;9.612;2023-07-29T14:43:20;98841.69;;;29.52;37.81
69796;BME280;57073;45.650;9.612;2023-07-29T14:48:20;98834.13;;;29.48;37.57
69796;BME280;57073;45.650;9.612;2023-07-29T14:53:21;98826.31;;;29.27;37.57
69796;BME280;57073;45.650;9.612;2023-07-29T14:58:21;98824.63;;;29.23;37.86
69796;BME280;57073;45.650;9.612;2023-07-29T15:03:21;98819.03;;;29.19;38.56
69796;BME280;57073;45.650;9.612;2023-07-29T15:08:22;98813.00;;;28.90;37.07
69796;BME280;57073;45.650;9.612;2023-07-29T15:13:22;98815.03;;;28.94;37.25
69796;BME280;57073;45.650;9.612;2023-07-29T15:18:22;98816.31;;;29.00;38.11
69796;BME280;57073;45.650;9.612;2023-07-29T15:23:23;98820.97;;;29.15;38.51
69796;BME280;57073;45.650;9.612;2023-07-29T15:28:23;98811.78;;;29.11;37.93
69796;BME280;57073;45.650;9.612;2023-07-29T15:33:24;98809.31;;;29.06;38.37
69796;BME280;57073;45.650;9.612;2023-07-29T15:38:24;98809.44;;;29.13;37.72
69796;BME280;57073;45.650;9.612;2023-07-29T15:43:24;98800.44;;;28.97;37.55
69796;BME280;57073;45.650;9.612;2023-07-29T15:48:25;98802.97;;;29.05;37.43
69796;BME280;57073;45.650;9.612;2023-07-29T15:53:25;98815.47;;;28.96;37.93
69796;BME280;57073;45.650;9.612;2023-07-29T15:58:26;98826.44;;;28.88;38.32
69796;BME280;57073;45.650;9.612;2023-07-29T16:03:26;98804.50;;;28.80;37.19
69796;BME280;57073;45.650;9.612;2023-07-29T16:08:27;98795.94;;;28.88;38.56
69796;BME280;57073;45.650;9.612;2023-07-29T16:13:27;98795.31;;;28.99;37.83
69796;BME280;57073;45.650;9.612;2023-07-29T16:18:28;98791.34;;;29.00;38.01
69796;BME280;57073;45.650;9.612;2023-07-29T16:23:29;98792.09;;;28.97;38.15
69796;BME280;57073;45.650;9.612;2023-07-29T16:28:30;98798.22;;;29.06;38.05
69796;BME280;57073;45.650;9.612;2023-07-29T16:33:31;98791.41;;;29.03;37.94
69796;BME280;57073;45.650;9.612;2023-07-29T16:38:31;98786.25;;;29.02;37.28
69796;BME280;57073;45.650;9.612;2023-07-29T16:43:32;98769.38;;;28.87;38.49
69796;BME280;57073;45.650;9.612;2023-07-29T16:48:32;98762.94;;;28.83;37.93
69796;BME280;57073;45.650;9.612;2023-07-29T16:53:32;98764.19;;;28.86;37.67
69796;BME280;57073;45.650;9.612;2023-07-29T16:58:33;98768.28;;;28.96;37.81
69796;BME280;57073;45.650;9.612;2023-07-29T17:03:33;98769.84;;;28.93;37.47
69796;BME280;57073;45.650;9.612;2023-07-29T17:08:36;98764.34;;;28.97;37.13
69796;BME280;57073;45.650;9.612;2023-07-29T17:13:39;98768.66;;;28.94;37.65
69796;BME280;57073;45.650;9.612;2023-07-29T17:18:39;98765.84;;;28.90;38.28
69796;BME280;57073;45.650;9.612;2023-07-29T17:23:40;98762.22;;;28.86;37.89
69796;BME280;57073;45.650;9.612;2023-07-29T17:28:41;98748.22;;;28.79;37.34
69796;BME280;57073;45.650;9.612;2023-07-29T17:33:41;98762.03;;;28.76;38.25
69796;BME280;57073;45.650;9.612;2023-07-29T17:38:42;98756.38;;;28.68;37.50
69796;BME280;57073;45.650;9.612;2023-07-29T17:43:43;98751.41;;;28.55;37.45
69796;BME280;57073;45.650;9.612;2023-07-29T17:48:45;98753.69;;;28.49;38.44
69796;BME280;57073;45.650;9.612;2023-07-29T17:53:46;98749.66;;;28.46;38.94
69796;BME280;57073;45.650;9.612;2023-07-29T17:58:46;98755.13;;;28.43;38.43
69796;BME280;57073;45.650;9.612;2023-07-29T18:03:47;98748.44;;;28.44;39.29
69796;BME280;57073;45.650;9.612;2023-07-29T18:08:47;98752.31;;;28.39;38.79
69796;BME280;57073;45.650;9.612;2023-07-29T18:13:48;98740.25;;;28.28;39.00
69796;BME280;57073;45.650;9.612;2023-07-29T18:18:48;98742.16;;;28.24;39.64
69796;BME280;57073;45.650;9.612;2023-07-29T18:23:48;98735.06;;;28.26;40.44
69796;BME280;57073;45.650;9.612;2023-07-29T18:28:49;98742.88;;;28.21;40.30
69796;BME280;57073;45.650;9.612;2023-07-29T18:33:49;98749.16;;;28.18;40.57
69796;BME280;57073;45.650;9.612;2023-07-29T18:38:49;98756.97;;;28.12;41.00
69796;BME280;57073;45.650;9.612;2023-07-29T18:43:50;98754.44;;;28.03;41.44
69796;BME280;57073;45.650;9.612;2023-07-29T18:48:57;98758.19;;;27.91;40.98
69796;BME280;57073;45.650;9.612;2023-07-29T18:53:58;98754.75;;;27.79;41.29
69796;BME280;57073;45.650;9.612;2023-07-29T18:58:59;98759.69;;;27.69;41.46
69796;BME280;57073;45.650;9.612;2023-07-29T19:03:59;98765.47;;;27.61;42.20
69796;BME280;57073;45.650;9.612;2023-07-29T19:09:00;98774.06;;;27.55;42.01
69796;BME280;57073;45.650;9.612;2023-07-29T19:14:00;98772.38;;;27.51;42.80
69796;BME280;57073;45.650;9.612;2023-07-29T19:19:02;98784.13;;;27.44;42.67
69796;BME280;57073;45.650;9.612;2023-07-29T19:24:02;98772.66;;;27.46;42.67
69796;BME280;57073;45.650;9.612;2023-07-29T19:29:03;98786.41;;;27.42;43.39
69796;BME280;57073;45.650;9.612;2023-07-29T19:34:03;98799.03;;;27.39;43.43
69796;BME280;57073;45.650;9.612;2023-07-29T19:39:04;98798.69;;;27.25;43.92
69796;BME280;57073;45.650;9.612;2023-07-29T19:44:05;98801.47;;;27.09;43.80
69796;BME280;57073;45.650;9.612;2023-07-29T19:49:05;98796.50;;;26.99;44.41
69796;BME280;57073;45.650;9.612;2023-07-29T19:54:05;98815.16;;;27.02;44.55
69796;BME280;57073;45.650;9.612;2023-07-29T19:59:06;98811.31;;;26.91;44.04
69796;BME280;57073;45.650;9.612;2023-07-29T20:04:06;98803.28;;;26.86;45.03
69796;BME280;57073;45.650;9.612;2023-07-29T20:09:07;98812.03;;;26.88;44.40
69796;BME280;57073;45.650;9.612;2023-07-29T20:14:07;98811.69;;;26.89;45.08
69796;BME280;57073;45.650;9.612;2023-07-29T20:19:07;98815.19;;;26.86;45.19
69796;BME280;57073;45.650;9.612;2023-07-29T20:24:08;98816.59;;;26.80;45.84
69796;BME280;57073;45.650;9.612;2023-07-29T20:29:08;98817.22;;;26.73;45.43
69796;BME280;57073;45.650;9.612;2023-07-29T20:34:09;98812.56;;;26.61;46.25
69796;BME280;57073;45.650;9.612;2023-07-29T20:39:09;98807.09;;;26.49;46.54
69796;BME280;57073;45.650;9.612;2023-07-29T20:44:09;98823.59;;;26.46;46.24
69796;BME280;57073;45.650;9.612;2023-07-29T20:49:12;98819.41;;;26.36;46.26
69796;BME280;57073;45.650;9.612;2023-07-29T20:54:12;98827.06;;;26.27;46.60
69796;BME280;57073;45.650;9.612;2023-07-29T20:59:13;98835.78;;;26.29;46.57
69796;BME280;57073;45.650;9.612;2023-07-29T21:04:13;98858.50;;;26.22;47.16
69796;BME280;57073;45.650;9.612;2023-07-29T21:09:14;98871.72;;;26.29;47.08
69796;BME280;57073;45.650;9.612;2023-07-29T21:14:14;98868.06;;;26.24;47.66
69796;BME280;57073;45.650;9.612;2023-07-29T21:19:15;98870.84;;;26.12;46.56
69796;BME280;57073;45.650;9.612;2023-07-29T21:24:15;98879.63;;;26.14;46.81
69796;BME280;57073;45.650;9.612;2023-07-29T21:29:15;98876.38;;;26.12;47.31
69796;BME280;57073;45.650;9.612;2023-07-29T21:34:16;98883.56;;;26.01;47.54
69796;BME280;57073;45.650;9.612;2023-07-29T21:39:16;98886.59;;;25.83;49.54
69796;BME280;57073;45.650;9.612;2023-07-29T21:44:17;98885.00;;;25.33;53.80
69796;BME280;57073;45.650;9.612;2023-07-29T21:49:17;98843.16;;;23.82;52.28
69796;BME280;57073;45.650;9.612;2023-07-29T21:54:18;98869.53;;;23.02;49.59
69796;BME280;57073;45.650;9.612;2023-07-29T21:59:18;98953.50;;;23.38;51.56
69796;BME280;57073;45.650;9.612;2023-07-29T22:04:18;98969.31;;;23.41;55.34
69796;BME280;57073;45.650;9.612;2023-07-29T22:09:19;99009.63;;;23.46;57.15
69796;BME280;57073;45.650;9.612;2023-07-29T22:14:20;98979.34;;;23.46;58.63
69796;BME280;57073;45.650;9.612;2023-07-29T22:19:21;98966.28;;;23.34;59.87
69796;BME280;57073;45.650;9.612;2023-07-29T22:24:21;99029.63;;;23.16;59.48
69796;BME280;57073;45.650;9.612;2023-07-29T22:29:21;99060.13;;;23.32;58.14
69796;BME280;57073;45.650;9.612;2023-07-29T22:34:22;98991.47;;;22.89;59.87
69796;BME280;57073;45.650;9.612;2023-07-29T22:39:22;98934.75;;;22.67;59.58
69796;BME280;57073;45.650;9.612;2023-07-29T22:44:23;98963.72;;;22.47;62.43
69796;BME280;57073;45.650;9.612;2023-07-29T22:49:23;98933.97;;;22.49;58.52
69796;BME280;57073;45.650;9.612;2023-07-29T22:54:23;98889.72;;;22.06;57.61
69796;BME280;57073;45.650;9.612;2023-07-29T22:59:24;98944.81;;;22.19;60.12
69796;BME280;57073;45.650;9.612;2023-07-29T23:04:24;99080.97;;;22.20;61.79
69796;BME280;57073;45.650;9.612;2023-07-29T23:09:25;99020.34;;;21.90;61.01
69796;BME280;57073;45.650;9.612;2023-07-29T23:14:25;98956.72;;;21.79;60.83
69796;BME280;57073;45.650;9.612;2023-07-29T23:19:26;98920.53;;;21.68;60.73
69796;BME280;57073;45.650;9.612;2023-07-29T23:24:26;98918.03;;;21.41;62.51
69796;BME280;57073;45.650;9.612;2023-07-29T23:29:27;98957.47;;;21.62;62.84
69796;BME280;57073;45.650;9.612;2023-07-29T23:34:27;98983.00;;;21.72;63.24
69796;BME280;57073;45.650;9.612;2023-07-29T23:39:28;99003.31;;;21.71;61.97
69796;BME280;57073;45.650;9.612;2023-07-29T23:44:28;98986.31;;;21.51;62.02
69796;BME280;57073;45.650;9.612;2023-07-29T23:49:28;98954.47;;;21.41;61.49
69796;BME280;57073;45.650;9.612;2023-07-29T23:54:29;98946.53;;;21.31;63.58
69796;BME280;57073;45.650;9.612;2023-07-29T23:59:29;98969.63;;;21.39;64.61
